createdAt,value
2023-03-30T00:01:12.143Z,21.80
2023-03-30T00:03:44.192Z,24.90
2023-03-30T00:06:14.731Z,26.20
2023-03-30T00:08:42.991Z,24.70
2023-03-30T00:11:17.179Z,38.30
2023-03-30T00:13:47.024Z,29.20
2023-03-30T00:16:14.971Z,42.90
2023-03-30T00:18:45.042Z,27.30
2023-03-30T00:21:20.780Z,22.20
2023-03-30T00:23:52.383Z,19.10
2023-03-30T00:26:20.613Z,24.00
2023-03-30T00:28:48.495Z,27.70
2023-03-30T00:31:17.185Z,33.40
2023-03-30T00:33:47.541Z,41.80
2023-03-30T00:36:17.817Z,26.20
2023-03-30T00:38:49.361Z,19.30
2023-03-30T00:41:17.931Z,23.70
2023-03-30T00:44:07.588Z,19.70
2023-03-30T00:46:36.505Z,31.50
2023-03-30T00:49:06.657Z,79.50
2023-03-30T00:51:37.366Z,78.40
2023-03-30T00:54:08.629Z,37.90
2023-03-30T00:56:38.021Z,32.10
2023-03-30T00:59:05.932Z,24.60
2023-03-30T01:01:39.534Z,22.50
2023-03-30T01:04:10.105Z,20.00
2023-03-30T01:06:40.436Z,21.90
2023-03-30T01:09:09.013Z,21.80
2023-03-30T01:11:40.462Z,24.20
2023-03-30T01:14:10.122Z,22.00
2023-03-30T01:16:48.736Z,27.00
2023-03-30T01:19:44.654Z,18.30
2023-03-30T01:22:18.594Z,15.00
2023-03-30T01:24:53.676Z,11.00
2023-03-30T01:27:30.673Z,10.30
2023-03-30T01:30:30.579Z,10.30
2023-03-30T01:33:23.485Z,10.20
2023-03-30T01:36:03.562Z,9.30
2023-03-30T01:41:11.474Z,10.50
2023-03-30T01:43:57.487Z,10.10
2023-03-30T01:46:40.276Z,9.90
2023-03-30T01:49:16.289Z,9.40
2023-03-30T01:52:03.859Z,8.40
2023-03-30T01:54:38.982Z,7.80
2023-03-30T01:57:15.514Z,7.70
2023-03-30T01:59:47.639Z,7.80
2023-03-30T02:02:16.948Z,8.60
2023-03-30T02:04:45.771Z,7.90
2023-03-30T02:07:16.289Z,7.40
2023-03-30T02:09:45.823Z,7.50
2023-03-30T02:12:14.005Z,7.40
2023-03-30T02:14:42.668Z,8.20
2023-03-30T02:17:15.226Z,8.30
2023-03-30T02:19:47.517Z,8.20
2023-03-30T02:22:17.712Z,8.20
2023-03-30T02:24:46.694Z,8.70
2023-03-30T02:27:14.516Z,8.50
2023-03-30T02:29:44.605Z,7.90
2023-03-30T02:32:19.589Z,7.40
2023-03-30T02:35:22.525Z,8.70
2023-03-30T02:38:26.573Z,7.30
2023-03-30T02:41:15.799Z,8.30
2023-03-30T02:43:51.263Z,8.00
2023-03-30T02:46:38.514Z,7.40
2023-03-30T02:49:17.246Z,8.20
2023-03-30T02:51:57.204Z,6.90
2023-03-30T02:54:51.000Z,8.50
2023-03-30T02:57:49.279Z,7.40
2023-03-30T03:00:44.459Z,8.50
2023-03-30T03:03:19.972Z,7.10
2023-03-30T03:05:49.035Z,7.00
2023-03-30T03:08:18.983Z,8.10
2023-03-30T03:10:47.702Z,7.60
2023-03-30T03:13:20.882Z,9.40
2023-03-30T03:15:49.845Z,9.60
2023-03-30T03:18:18.818Z,8.70
2023-03-30T03:20:47.028Z,8.90
2023-03-30T03:23:16.625Z,8.50
2023-03-30T03:25:51.690Z,9.10
2023-03-30T03:28:22.411Z,10.40
2023-03-30T03:30:54.342Z,8.80
2023-03-30T03:33:24.864Z,9.80
2023-03-30T03:36:00.547Z,9.10
2023-03-30T03:38:29.470Z,8.20
2023-03-30T03:40:58.531Z,8.90
2023-03-30T03:43:26.903Z,9.40
2023-03-30T03:45:55.091Z,8.60
2023-03-30T03:48:24.414Z,11.40
2023-03-30T03:50:53.937Z,10.60
2023-03-30T03:53:22.944Z,11.80
2023-03-30T03:55:52.922Z,15.00
2023-03-30T03:58:23.788Z,16.10
2023-03-30T04:00:57.463Z,12.90
2023-03-30T04:03:32.398Z,12.00
2023-03-30T04:06:01.195Z,11.60
2023-03-30T04:08:30.659Z,12.10
2023-03-30T04:11:10.039Z,11.50
2023-03-30T04:13:48.940Z,10.90
2023-03-30T04:16:44.252Z,12.70
2023-03-30T04:19:33.532Z,11.20
2023-03-30T04:22:24.383Z,11.80
2023-03-30T04:25:16.060Z,12.20
2023-03-30T04:28:06.658Z,12.80
2023-03-30T04:30:59.065Z,11.90
2023-03-30T04:34:02.676Z,12.20
2023-03-30T04:36:48.992Z,11.60
2023-03-30T04:39:36.282Z,11.40
2023-03-30T04:42:34.481Z,11.30
2023-03-30T04:45:23.744Z,10.90
2023-03-30T04:48:16.534Z,11.10
2023-03-30T04:50:56.398Z,10.40
2023-03-30T04:53:43.057Z,8.90
2023-03-30T04:56:26.407Z,9.10
2023-03-30T04:59:13.314Z,9.80
2023-03-30T05:02:01.092Z,8.60
2023-03-30T05:04:42.294Z,10.50
2023-03-30T05:07:31.557Z,10.90
2023-03-30T05:10:22.966Z,10.10
2023-03-30T05:12:57.590Z,11.70
2023-03-30T05:15:39.908Z,9.10
2023-03-30T05:18:26.165Z,9.70
2023-03-30T05:21:09.165Z,14.20
2023-03-30T05:23:55.929Z,22.40
2023-03-30T05:27:02.955Z,13.80
2023-03-30T05:29:51.639Z,13.90
2023-03-30T05:32:47.384Z,21.00
2023-03-30T05:35:27.135Z,10.30
2023-03-30T05:38:19.073Z,12.50
2023-03-30T05:41:11.223Z,13.70
2023-03-30T05:43:59.505Z,16.30
2023-03-30T05:46:58.652Z,14.40
2023-03-30T05:49:41.401Z,12.20
2023-03-30T05:52:18.815Z,8.20
2023-03-30T05:55:02.872Z,6.10
2023-03-30T05:57:50.450Z,7.90
2023-03-30T06:00:42.545Z,6.20
2023-03-30T06:03:16.469Z,6.30
2023-03-30T06:05:46.702Z,5.30
2023-03-30T06:08:15.295Z,5.50
2023-03-30T06:10:52.198Z,5.10
2023-03-30T06:13:20.173Z,7.40
2023-03-30T06:15:52.172Z,5.10
2023-03-30T06:18:22.706Z,4.50
2023-03-30T06:20:57.506Z,4.80
2023-03-30T06:23:26.482Z,4.80
2023-03-30T06:25:56.210Z,5.30
2023-03-30T06:30:56.999Z,4.50
2023-03-30T06:33:26.421Z,5.00
2023-03-30T06:35:58.685Z,4.30
2023-03-30T06:38:27.640Z,4.20
2023-03-30T06:40:57.097Z,4.60
2023-03-30T06:43:26.340Z,5.40
2023-03-30T06:46:16.038Z,4.30
2023-03-30T06:48:48.847Z,4.40
2023-03-30T06:51:37.241Z,4.70
2023-03-30T06:54:06.299Z,4.60
2023-03-30T06:56:34.498Z,4.50
2023-03-30T06:59:10.945Z,4.10
2023-03-30T07:02:00.037Z,3.30
2023-03-30T07:04:53.078Z,3.60
2023-03-30T07:07:26.568Z,6.50
2023-03-30T07:09:54.790Z,4.00
2023-03-30T07:12:25.093Z,3.40
2023-03-30T07:14:54.485Z,3.80
2023-03-30T07:17:26.400Z,3.60
2023-03-30T07:19:59.016Z,3.70
2023-03-30T07:22:27.898Z,3.60
2023-03-30T07:24:55.861Z,3.70
2023-03-30T07:27:27.287Z,3.50
2023-03-30T07:30:00.528Z,4.60
2023-03-30T07:32:34.815Z,3.80
2023-03-30T07:35:04.397Z,4.20
2023-03-30T07:37:32.660Z,4.00
2023-03-30T07:40:01.323Z,3.90
2023-03-30T07:42:31.591Z,3.00
2023-03-30T07:44:59.897Z,4.30
2023-03-30T07:47:29.008Z,3.30
2023-03-30T07:49:57.217Z,3.40
2023-03-30T07:52:26.405Z,3.80
2023-03-30T07:54:58.764Z,4.10
2023-03-30T07:57:34.312Z,4.70
2023-03-30T08:00:05.621Z,3.80
2023-03-30T08:03:05.335Z,4.60
2023-03-30T08:05:38.967Z,3.90
2023-03-30T08:08:15.981Z,4.10
2023-03-30T08:10:44.905Z,4.40
2023-03-30T08:13:15.539Z,4.30
2023-03-30T08:15:45.313Z,4.40
2023-03-30T08:18:14.249Z,4.50
2023-03-30T08:20:45.595Z,5.00
2023-03-30T08:23:14.176Z,4.70
2023-03-30T08:25:42.916Z,4.00
2023-03-30T08:28:11.777Z,5.20
2023-03-30T08:30:40.101Z,5.00
2023-03-30T08:33:09.298Z,5.40
2023-03-30T08:35:37.583Z,5.20
2023-03-30T08:38:05.433Z,4.10
2023-03-30T08:40:33.230Z,5.40
2023-03-30T08:43:09.823Z,5.30
2023-03-30T08:45:42.623Z,4.90
2023-03-30T08:48:22.134Z,4.30
2023-03-30T08:51:14.766Z,4.00
2023-03-30T08:53:42.867Z,4.00
2023-03-30T08:56:19.089Z,4.40
2023-03-30T08:58:56.490Z,4.10
2023-03-30T09:01:42.344Z,4.70
2023-03-30T09:04:27.428Z,4.00
2023-03-30T09:06:58.315Z,4.30
2023-03-30T09:09:28.875Z,3.50
2023-03-30T09:12:05.194Z,4.00
2023-03-30T09:14:36.674Z,4.50
2023-03-30T09:17:14.568Z,4.80
2023-03-30T09:19:49.355Z,9.30
2023-03-30T09:22:18.468Z,6.10
2023-03-30T09:24:46.775Z,5.20
2023-03-30T09:27:22.639Z,12.50
2023-03-30T09:29:51.604Z,6.40
2023-03-30T09:32:36.016Z,4.40
2023-03-30T09:35:14.933Z,6.30
2023-03-30T09:37:42.837Z,10.40
2023-03-30T09:40:23.376Z,5.80
2023-03-30T09:42:55.562Z,5.20
2023-03-30T09:45:31.995Z,5.10
2023-03-30T09:48:06.555Z,5.20
2023-03-30T09:50:44.152Z,4.50
2023-03-30T09:53:25.805Z,7.00
2023-03-30T09:56:11.270Z,4.90
2023-03-30T09:58:42.422Z,4.60
2023-03-30T10:01:12.814Z,4.40
2023-03-30T10:04:05.799Z,7.50
2023-03-30T10:06:39.541Z,5.00
2023-03-30T10:09:11.455Z,3.80
2023-03-30T10:11:44.918Z,3.90
2023-03-30T10:14:23.754Z,4.70
2023-03-30T10:16:56.742Z,7.10
2023-03-30T10:19:25.709Z,6.60
2023-03-30T10:21:58.909Z,4.00
2023-03-30T10:24:33.232Z,6.70
2023-03-30T10:27:09.735Z,4.80
2023-03-30T10:29:37.805Z,5.10
2023-03-30T10:32:19.688Z,5.00
2023-03-30T10:34:52.472Z,4.30
2023-03-30T10:37:34.563Z,4.10
2023-03-30T10:40:08.878Z,4.10
2023-03-30T10:42:37.103Z,6.30
2023-03-30T10:45:06.404Z,3.50
2023-03-30T10:48:03.117Z,4.50
2023-03-30T10:50:52.236Z,4.20
2023-03-30T10:53:30.954Z,3.90
2023-03-30T10:56:17.286Z,3.60
2023-03-30T10:59:16.338Z,4.20
2023-03-30T11:02:08.820Z,4.50
2023-03-30T11:04:36.747Z,4.60
2023-03-30T11:07:05.754Z,4.20
2023-03-30T11:09:36.770Z,5.10
2023-03-30T11:12:11.304Z,6.80
2023-03-30T11:14:47.758Z,4.50
2023-03-30T11:17:35.556Z,3.50
2023-03-30T11:20:17.955Z,3.30
2023-03-30T11:22:49.235Z,4.20
2023-03-30T11:25:39.507Z,3.80
2023-03-30T11:28:44.974Z,4.10
2023-03-30T11:31:40.340Z,4.70
2023-03-30T11:34:28.486Z,3.50
2023-03-30T11:37:13.580Z,3.20
2023-03-30T11:39:48.026Z,3.90
2023-03-30T11:42:23.236Z,3.40
2023-03-30T11:44:51.837Z,4.10
2023-03-30T11:47:37.044Z,3.50
2023-03-30T11:50:50.794Z,3.70
2023-03-30T11:53:28.609Z,4.30
2023-03-30T11:58:38.229Z,3.30
2023-03-30T12:02:04.552Z,3.60
2023-03-30T12:04:40.294Z,3.10
2023-03-30T12:07:35.420Z,3.60
2023-03-30T12:10:08.297Z,3.50
2023-03-30T12:12:45.738Z,4.20
2023-03-30T12:15:26.493Z,4.60
2023-03-30T12:18:02.830Z,4.00
2023-03-30T12:20:43.183Z,3.40
2023-03-30T12:23:36.009Z,3.60
2023-03-30T12:26:25.913Z,5.50
2023-03-30T12:29:26.240Z,4.50
2023-03-30T12:31:56.040Z,4.10
2023-03-30T12:34:26.167Z,3.10
2023-03-30T12:37:10.127Z,5.60
2023-03-30T12:39:51.007Z,3.80
2023-03-30T12:42:35.278Z,4.00
2023-03-30T12:45:14.961Z,6.50
2023-03-30T12:47:52.589Z,4.10
2023-03-30T12:51:00.290Z,3.40
2023-03-30T12:53:47.274Z,3.20
2023-03-30T12:56:35.576Z,5.30
2023-03-30T12:59:26.376Z,5.00
2023-03-30T13:02:01.874Z,3.80
2023-03-30T13:04:34.468Z,4.10
2023-03-30T13:07:07.081Z,4.80
2023-03-30T13:10:01.863Z,5.30
2023-03-30T13:12:36.066Z,5.10
2023-03-30T13:15:31.634Z,3.20
2023-03-30T13:18:05.037Z,4.50
2023-03-30T13:20:47.117Z,4.00
2023-03-30T13:23:19.817Z,4.70
2023-03-30T13:26:07.869Z,5.00
2023-03-30T13:28:57.489Z,4.60
2023-03-30T13:31:44.179Z,4.10
2023-03-30T13:34:22.146Z,5.10
2023-03-30T13:37:14.554Z,4.90
2023-03-30T13:40:24.554Z,4.40
2023-03-30T13:43:10.157Z,4.30
2023-03-30T13:46:13.154Z,4.20
2023-03-30T13:48:49.983Z,5.60
2023-03-30T13:51:27.563Z,5.30
2023-03-30T13:54:01.697Z,4.10
2023-03-30T13:59:32.222Z,5.90
2023-03-30T14:02:01.074Z,4.50
2023-03-30T14:04:34.590Z,4.70
2023-03-30T14:07:14.235Z,3.80
2023-03-30T14:09:42.611Z,5.20
2023-03-30T14:12:18.515Z,8.90
2023-03-30T14:14:48.386Z,5.40
2023-03-30T14:17:21.852Z,4.70
2023-03-30T14:20:19.855Z,3.90
2023-03-30T14:22:47.888Z,5.00
2023-03-30T14:25:26.336Z,4.80
2023-03-30T14:28:02.947Z,5.40
2023-03-30T14:30:31.356Z,6.00
2023-03-30T14:33:11.507Z,8.40
2023-03-30T14:35:50.953Z,6.70
2023-03-30T14:38:24.090Z,7.60
2023-03-30T14:40:53.267Z,4.70
2023-03-30T14:43:24.628Z,4.80
2023-03-30T14:45:53.739Z,4.90
2023-03-30T14:48:31.737Z,8.10
2023-03-30T14:51:19.906Z,7.70
2023-03-30T14:53:49.993Z,4.80
2023-03-30T14:56:20.661Z,5.00
2023-03-30T14:58:49.413Z,5.40
2023-03-30T15:01:31.050Z,5.30
2023-03-30T15:04:07.618Z,6.40
2023-03-30T15:06:36.652Z,4.70
2023-03-30T15:09:15.094Z,5.40
2023-03-30T15:11:43.521Z,5.80
2023-03-30T15:14:15.218Z,7.00
2023-03-30T15:16:43.125Z,7.70
2023-03-30T15:19:28.081Z,5.00
2023-03-30T15:22:01.085Z,4.60
2023-03-30T15:24:33.098Z,4.50
2023-03-30T15:27:03.305Z,5.70
2023-03-30T15:29:31.614Z,5.90
2023-03-30T15:32:20.186Z,4.70
2023-03-30T15:35:13.701Z,5.40
2023-03-30T15:37:56.108Z,4.40
2023-03-30T15:40:40.936Z,5.90
2023-03-30T15:43:20.032Z,5.90
2023-03-30T15:46:08.871Z,6.80
2023-03-30T15:48:45.630Z,9.70
2023-03-30T15:51:24.705Z,8.00
2023-03-30T15:53:56.781Z,9.80
2023-03-30T15:57:04.059Z,9.10
2023-03-30T15:59:40.617Z,8.30
2023-03-30T16:02:22.766Z,7.50
2023-03-30T16:04:51.666Z,11.80
2023-03-30T16:07:21.195Z,13.90
2023-03-30T16:09:49.052Z,10.00
2023-03-30T16:12:20.648Z,8.30
2023-03-30T16:14:48.588Z,6.40
2023-03-30T16:17:16.752Z,6.60
2023-03-30T16:19:45.763Z,7.80
2023-03-30T16:22:14.331Z,22.20
2023-03-30T16:24:43.650Z,7.90
2023-03-30T16:27:12.184Z,11.40
2023-03-30T16:29:45.967Z,16.10
2023-03-30T16:32:13.877Z,15.60
2023-03-30T16:34:43.092Z,10.90
2023-03-30T16:37:13.717Z,8.30
2023-03-30T16:39:42.644Z,10.20
2023-03-30T16:42:11.138Z,7.20
2023-03-30T16:44:39.033Z,8.40
2023-03-30T16:47:07.399Z,8.40
2023-03-30T16:49:35.544Z,11.10
2023-03-30T16:52:03.549Z,8.80
2023-03-30T16:54:32.961Z,8.60
2023-03-30T16:57:02.548Z,11.10
2023-03-30T16:59:34.447Z,15.20
2023-03-30T17:02:03.520Z,11.20
2023-03-30T17:04:31.695Z,11.30
2023-03-30T17:07:01.868Z,12.20
2023-03-30T17:09:30.198Z,11.50
2023-03-30T17:11:58.181Z,11.30
2023-03-30T17:14:26.133Z,8.90
2023-03-30T17:16:55.188Z,9.40
2023-03-30T17:19:25.664Z,8.20
2023-03-30T17:21:53.550Z,10.60
2023-03-30T17:24:21.710Z,9.10
2023-03-30T17:26:49.667Z,8.70
2023-03-30T17:29:17.830Z,8.00
2023-03-30T17:31:52.221Z,13.80
2023-03-30T17:34:20.431Z,26.00
2023-03-30T17:36:48.392Z,57.40
2023-03-30T17:39:16.832Z,147.50
2023-03-30T17:41:44.867Z,82.10
2023-03-30T17:44:17.838Z,30.40
2023-03-30T17:46:46.295Z,21.10
2023-03-30T17:49:18.618Z,19.80
2023-03-30T17:51:47.165Z,22.30
2023-03-30T17:54:15.640Z,21.70
2023-03-30T17:56:43.672Z,16.90
2023-03-30T17:59:11.739Z,16.30
2023-03-30T18:01:40.191Z,14.40
2023-03-30T18:04:08.430Z,13.60
2023-03-30T18:06:36.474Z,13.60
2023-03-30T18:09:06.209Z,13.70
2023-03-30T18:11:35.165Z,12.80
2023-03-30T18:14:03.208Z,12.60
2023-03-30T18:16:31.265Z,11.30
2023-03-30T18:18:59.495Z,15.30
2023-03-30T18:21:27.732Z,15.20
2023-03-30T18:23:57.022Z,14.10
2023-03-30T18:26:24.862Z,15.10
2023-03-30T18:28:52.858Z,14.80
2023-03-30T18:31:22.360Z,14.50
2023-03-30T18:33:53.062Z,11.20
2023-03-30T18:36:21.615Z,12.70
2023-03-30T18:38:50.406Z,12.30
2023-03-30T18:41:18.264Z,12.90
2023-03-30T18:43:47.312Z,12.70
2023-03-30T18:46:15.213Z,12.40
2023-03-30T18:48:44.424Z,16.80
2023-03-30T18:51:12.719Z,15.70
2023-03-30T18:53:42.505Z,18.10
2023-03-30T18:56:11.630Z,18.70
2023-03-30T18:58:42.025Z,21.70
2023-03-30T19:01:16.125Z,21.20
2023-03-30T19:03:45.344Z,21.80
2023-03-30T19:06:16.572Z,19.40
2023-03-30T19:08:44.725Z,20.40
2023-03-30T19:11:14.994Z,21.40
2023-03-30T19:13:43.032Z,24.60
2023-03-30T19:16:12.502Z,26.90
2023-03-30T19:18:41.109Z,25.30
2023-03-30T19:21:13.484Z,27.30
2023-03-30T19:23:41.557Z,26.10
2023-03-30T19:26:09.628Z,26.80
2023-03-30T19:28:40.107Z,26.10
2023-03-30T19:31:12.174Z,29.90
2023-03-30T19:33:40.548Z,27.50
2023-03-30T19:36:11.060Z,31.90
2023-03-30T19:38:39.102Z,33.10
2023-03-30T19:41:10.238Z,31.60
2023-03-30T19:43:38.423Z,32.60
2023-03-30T19:46:08.991Z,27.60
2023-03-30T19:48:38.551Z,33.90
2023-03-30T19:51:06.976Z,38.00
2023-03-30T19:53:37.914Z,49.70
2023-03-30T19:56:10.436Z,55.20
2023-03-30T19:58:38.924Z,49.90
2023-03-30T20:01:08.291Z,31.90
2023-03-30T20:03:37.407Z,26.80
2023-03-30T20:06:11.805Z,30.30
2023-03-30T20:08:40.283Z,26.10
2023-03-30T20:11:08.878Z,22.50
2023-03-30T20:13:36.890Z,21.10
2023-03-30T20:16:06.063Z,22.90
2023-03-30T20:18:35.690Z,25.10
2023-03-30T20:21:04.638Z,26.00
2023-03-30T20:23:33.180Z,26.20
2023-03-30T20:26:04.252Z,27.80
2023-03-30T20:28:34.007Z,28.40
2023-03-30T20:31:02.066Z,21.10
2023-03-30T20:33:32.819Z,35.60
2023-03-30T20:36:01.310Z,29.70
2023-03-30T20:38:29.444Z,32.20
2023-03-30T20:40:58.564Z,28.20
2023-03-30T20:43:26.807Z,24.50
2023-03-30T20:46:05.762Z,17.80
2023-03-30T20:48:37.632Z,19.30
2023-03-30T20:51:10.974Z,17.30
2023-03-30T20:53:39.326Z,16.50
2023-03-30T20:56:10.336Z,17.80
2023-03-30T20:58:39.196Z,17.80
2023-03-30T21:01:18.855Z,17.00
2023-03-30T21:03:50.213Z,19.20
2023-03-30T21:06:19.816Z,22.80
2023-03-30T21:08:48.780Z,21.50
2023-03-30T21:11:17.120Z,22.00
2023-03-30T21:13:56.684Z,22.00
2023-03-30T21:16:24.779Z,23.40
2023-03-30T21:18:53.516Z,23.40
2023-03-30T21:21:22.970Z,21.80
2023-03-30T21:23:50.869Z,28.70
2023-03-30T21:26:19.252Z,25.60
2023-03-30T21:28:47.252Z,23.60
2023-03-30T21:31:17.322Z,26.10
2023-03-30T21:33:46.379Z,24.40
2023-03-30T21:36:14.407Z,21.40
2023-03-30T21:38:42.468Z,23.90
2023-03-30T21:41:14.039Z,22.80
2023-03-30T21:43:44.408Z,21.00
2023-03-30T21:46:20.628Z,20.30
2023-03-30T21:48:53.698Z,18.80
2023-03-30T21:51:27.399Z,25.90
2023-03-30T21:53:56.178Z,22.40
2023-03-30T21:56:26.020Z,20.60
2023-03-30T21:58:53.979Z,23.40
2023-03-30T22:01:25.085Z,22.10
2023-03-30T22:03:54.313Z,21.90
2023-03-30T22:06:22.561Z,21.60
2023-03-30T22:11:20.716Z,39.60
2023-03-30T22:13:49.101Z,42.10
2023-03-30T22:16:25.852Z,33.20
2023-03-30T22:18:56.957Z,33.40
2023-03-30T22:21:27.288Z,20.00
2023-03-30T22:23:55.120Z,19.50
2023-03-30T22:26:22.981Z,25.50
2023-03-30T22:28:51.384Z,23.10
2023-03-30T22:31:23.328Z,24.10
2023-03-30T22:33:52.972Z,23.60
2023-03-30T22:36:23.278Z,24.90
2023-03-30T22:38:51.985Z,25.20
2023-03-30T22:41:24.001Z,24.30
2023-03-30T22:43:53.196Z,23.20
2023-03-30T22:46:21.678Z,23.70
2023-03-30T22:48:51.753Z,22.90
2023-03-30T22:51:26.522Z,22.80
2023-03-30T22:53:58.021Z,22.10
2023-03-30T22:56:31.850Z,21.40
2023-03-30T22:59:01.385Z,20.60
2023-03-30T23:01:32.060Z,18.90
2023-03-30T23:04:01.876Z,18.30
2023-03-30T23:06:31.915Z,19.40
2023-03-30T23:09:04.308Z,18.60
2023-03-30T23:11:34.429Z,17.40
2023-03-30T23:14:05.454Z,19.20
2023-03-30T23:16:34.338Z,17.00
2023-03-30T23:19:03.318Z,16.70
2023-03-30T23:21:34.419Z,18.70
2023-03-30T23:24:07.668Z,19.50
2023-03-30T23:29:04.975Z,18.70
2023-03-30T23:31:34.830Z,18.90
2023-03-30T23:34:02.864Z,19.70
2023-03-30T23:36:31.381Z,18.50
2023-03-30T23:38:59.247Z,17.70
2023-03-30T23:41:29.099Z,17.90
2023-03-30T23:43:58.288Z,17.60
2023-03-30T23:46:26.764Z,18.40
2023-03-30T23:48:55.014Z,17.00
2023-03-30T23:51:22.929Z,16.90
2023-03-30T23:53:54.570Z,17.70
2023-03-30T23:56:27.849Z,15.40
2023-03-30T23:58:56.896Z,15.00
